sensor_id;sensor_type;location;lat;lon;timestamp;pressure;altitude;pressure_sealevel;temperature;humidity
39699;BME280;25372;50.582;12.250;2024-01-06T00:01:58;98549.66;;;0.09;100.00
39699;BME280;25372;50.582;12.250;2024-01-06T00:12:20;98548.00;;;-0.15;100.00
39699;BME280;25372;50.582;12.250;2024-01-06T00:22:41;98558.41;;;-0.38;100.00
39699;BME280;25372;50.582;12.250;2024-01-06T00:33:05;98581.56;;;-0.37;100.00
39699;BME280;25372;50.582;12.250;2024-01-06T00:43:26;98582.47;;;-0.38;100.00
39699;BME280;25372;50.582;12.250;2024-01-06T00:53:49;98590.75;;;-0.52;100.00
39699;BME280;25372;50.582;12.250;2024-01-06T01:04:10;98591.81;;;-0.35;100.00
39699;BME280;25372;50.582;12.250;2024-01-06T01:14:32;98591.31;;;-0.91;100.00
39699;BME280;25372;50.582;12.250;2024-01-06T01:24:53;98605.56;;;-0.81;100.00
39699;BME280;25372;50.582;12.250;2024-01-06T01:35:16;98590.34;;;-0.65;100.00
39699;BME280;25372;50.582;12.250;2024-01-06T01:45:37;98604.66;;;-0.80;100.00
39699;BME280;25372;50.582;12.250;2024-01-06T01:55:59;98607.56;;;-0.89;100.00
39699;BME280;25372;50.582;12.250;2024-01-06T02:06:21;98604.03;;;-1.10;100.00
39699;BME280;25372;50.582;12.250;2024-01-06T02:16:43;98602.19;;;-1.07;100.00
39699;BME280;25372;50.582;12.250;2024-01-06T02:27:05;98607.94;;;-1.24;100.00
39699;BME280;25372;50.582;12.250;2024-01-06T02:37:27;98607.22;;;-1.29;100.00
39699;BME280;25372;50.582;12.250;2024-01-06T02:47:49;98612.22;;;-1.50;100.00
39699;BME280;25372;50.582;12.250;2024-01-06T02:58:10;98612.28;;;-1.78;100.00
39699;BME280;25372;50.582;12.250;2024-01-06T03:08:32;98621.91;;;-1.31;100.00
39699;BME280;25372;50.582;12.250;2024-01-06T03:18:54;98639.44;;;-1.41;100.00
39699;BME280;25372;50.582;12.250;2024-01-06T03:29:17;98638.53;;;-1.67;100.00
39699;BME280;25372;50.582;12.250;2024-01-06T03:39:38;98642.63;;;-1.34;100.00
39699;BME280;25372;50.582;12.250;2024-01-06T03:50:00;98639.53;;;-1.71;100.00
39699;BME280;25372;50.582;12.250;2024-01-06T04:00:21;98643.19;;;-1.78;100.00
39699;BME280;25372;50.582;12.250;2024-01-06T04:10:44;98645.03;;;-1.82;100.00
39699;BME280;25372;50.582;12.250;2024-01-06T04:21:05;98658.38;;;-2.26;100.00
39699;BME280;25372;50.582;12.250;2024-01-06T04:31:28;98648.13;;;-1.71;100.00
39699;BME280;25372;50.582;12.250;2024-01-06T04:41:49;98654.22;;;-2.02;100.00
39699;BME280;25372;50.582;12.250;2024-01-06T04:52:11;98670.88;;;-1.85;100.00
39699;BME280;25372;50.582;12.250;2024-01-06T05:02:32;98665.44;;;-1.76;100.00
39699;BME280;25372;50.582;12.250;2024-01-06T05:12:55;98680.72;;;-1.44;100.00
39699;BME280;25372;50.582;12.250;2024-01-06T05:23:16;98684.63;;;-1.32;100.00
39699;BME280;25372;50.582;12.250;2024-01-06T05:33:38;98686.59;;;-1.14;100.00
39699;BME280;25372;50.582;12.250;2024-01-06T05:43:59;98706.66;;;-0.71;100.00
39699;BME280;25372;50.582;12.250;2024-01-06T05:54:22;98713.16;;;-0.61;100.00
39699;BME280;25372;50.582;12.250;2024-01-06T06:04:43;98722.94;;;-0.71;100.00
39699;BME280;25372;50.582;12.250;2024-01-06T06:15:06;98744.00;;;-0.34;100.00
39699;BME280;25372;50.582;12.250;2024-01-06T06:25:27;98758.66;;;-0.10;100.00
39699;BME280;25372;50.582;12.250;2024-01-06T06:35:49;98768.72;;;0.20;100.00
39699;BME280;25372;50.582;12.250;2024-01-06T06:46:11;98780.63;;;0.24;100.00
39699;BME280;25372;50.582;12.250;2024-01-06T06:56:34;98791.88;;;0.23;100.00
39699;BME280;25372;50.582;12.250;2024-01-06T07:06:55;98803.72;;;0.29;100.00
39699;BME280;25372;50.582;12.250;2024-01-06T07:17:18;98826.16;;;0.26;100.00
39699;BME280;25372;50.582;12.250;2024-01-06T07:27:40;98829.50;;;0.52;100.00
39699;BME280;25372;50.582;12.250;2024-01-06T07:38:03;98851.31;;;0.45;100.00
39699;BME280;25372;50.582;12.250;2024-01-06T07:48:24;98854.00;;;0.42;100.00
39699;BME280;25372;50.582;12.250;2024-01-06T07:58:47;98858.06;;;0.72;100.00
39699;BME280;25372;50.582;12.250;2024-01-06T08:09:08;98878.75;;;0.94;100.00
39699;BME280;25372;50.582;12.250;2024-01-06T08:19:30;98875.53;;;1.32;100.00
39699;BME280;25372;50.582;12.250;2024-01-06T08:29:53;98888.44;;;1.54;100.00
39699;BME280;25372;50.582;12.250;2024-01-06T08:40:15;98901.13;;;1.81;100.00
39699;BME280;25372;50.582;12.250;2024-01-06T08:50:36;98901.06;;;2.03;100.00
39699;BME280;25372;50.582;12.250;2024-01-06T09:00:59;98925.06;;;2.07;100.00
39699;BME280;25372;50.582;12.250;2024-01-06T09:11:20;98930.50;;;2.21;100.00
39699;BME280;25372;50.582;12.250;2024-01-06T09:21:42;98947.63;;;2.45;100.00
39699;BME280;25372;50.582;12.250;2024-01-06T09:32:05;98959.56;;;3.06;100.00
39699;BME280;25372;50.582;12.250;2024-01-06T09:42:27;98962.63;;;3.52;100.00
39699;BME280;25372;50.582;12.250;2024-01-06T09:52:49;98954.88;;;3.32;100.00
39699;BME280;25372;50.582;12.250;2024-01-06T10:03:15;98960.03;;;3.34;100.00
39699;BME280;25372;50.582;12.250;2024-01-06T10:13:36;98948.81;;;3.69;100.00
39699;BME280;25372;50.582;12.250;2024-01-06T10:23:59;98953.72;;;3.92;99.32
39699;BME280;25372;50.582;12.250;2024-01-06T10:34:21;98952.88;;;4.10;95.80
39699;BME280;25372;50.582;12.250;2024-01-06T10:44:45;98940.47;;;4.32;98.86
39699;BME280;25372;50.582;12.250;2024-01-06T10:55:08;98938.41;;;4.55;88.85
39699;BME280;25372;50.582;12.250;2024-01-06T11:05:31;98951.03;;;4.95;89.00
39699;BME280;25372;50.582;12.250;2024-01-06T11:15:53;98959.91;;;5.39;90.57
39699;BME280;25372;50.582;12.250;2024-01-06T11:26:15;98958.34;;;5.21;85.33
39699;BME280;25372;50.582;12.250;2024-01-06T11:36:37;98962.00;;;4.84;86.96
39699;BME280;25372;50.582;12.250;2024-01-06T11:46:59;98963.69;;;4.18;88.88
39699;BME280;25372;50.582;12.250;2024-01-06T11:57:20;98957.91;;;3.95;92.47
39699;BME280;25372;50.582;12.250;2024-01-06T12:07:52;98962.75;;;3.85;92.68
39699;BME280;25372;50.582;12.250;2024-01-06T12:18:14;98971.97;;;4.09;91.49
39699;BME280;25372;50.582;12.250;2024-01-06T12:28:37;98982.28;;;4.10;90.91
39699;BME280;25372;50.582;12.250;2024-01-06T12:38:58;98981.00;;;4.01;92.37
39699;BME280;25372;50.582;12.250;2024-01-06T12:49:21;98986.41;;;3.79;91.93
39699;BME280;25372;50.582;12.250;2024-01-06T12:59:51;98984.13;;;3.73;93.50
39699;BME280;25372;50.582;12.250;2024-01-06T13:10:12;98998.16;;;3.51;95.55
39699;BME280;25372;50.582;12.250;2024-01-06T13:20:35;99014.59;;;3.32;95.92
39699;BME280;25372;50.582;12.250;2024-01-06T13:30:57;99033.53;;;3.15;95.26
39699;BME280;25372;50.582;12.250;2024-01-06T13:41:19;99041.53;;;2.91;96.21
39699;BME280;25372;50.582;12.250;2024-01-06T13:51:41;99035.06;;;2.81;95.91
39699;BME280;25372;50.582;12.250;2024-01-06T14:02:03;99040.19;;;2.83;95.86
39699;BME280;25372;50.582;12.250;2024-01-06T14:12:25;99045.28;;;2.84;96.12
39699;BME280;25372;50.582;12.250;2024-01-06T14:22:48;99065.94;;;2.67;96.90
39699;BME280;25372;50.582;12.250;2024-01-06T14:33:09;99071.66;;;2.33;96.65
39699;BME280;25372;50.582;12.250;2024-01-06T14:43:32;99097.69;;;2.30;97.64
39699;BME280;25372;50.582;12.250;2024-01-06T14:53:53;99117.84;;;2.01;98.17
39699;BME280;25372;50.582;12.250;2024-01-06T15:04:17;99113.09;;;1.68;98.84
39699;BME280;25372;50.582;12.250;2024-01-06T15:14:39;99130.69;;;1.58;99.35
39699;BME280;25372;50.582;12.250;2024-01-06T15:25:02;99142.66;;;1.38;99.40
39699;BME280;25372;50.582;12.250;2024-01-06T15:35:25;99158.28;;;1.35;99.19
39699;BME280;25372;50.582;12.250;2024-01-06T15:45:49;99172.34;;;1.28;99.22
39699;BME280;25372;50.582;12.250;2024-01-06T15:56:10;99180.31;;;1.22;99.44
39699;BME280;25372;50.582;12.250;2024-01-06T16:06:33;99180.78;;;1.33;99.22
39699;BME280;25372;50.582;12.250;2024-01-06T16:16:54;99183.78;;;1.22;98.98
39699;BME280;25372;50.582;12.250;2024-01-06T16:27:16;99192.03;;;1.32;98.58
39699;BME280;25372;50.582;12.250;2024-01-06T16:37:37;99185.28;;;1.28;98.43
39699;BME280;25372;50.582;12.250;2024-01-06T16:48:00;99198.44;;;1.22;97.80
39699;BME280;25372;50.582;12.250;2024-01-06T16:58:22;99206.66;;;1.33;97.65
39699;BME280;25372;50.582;12.250;2024-01-06T17:08:44;99228.75;;;1.18;97.68
39699;BME280;25372;50.582;12.250;2024-01-06T17:19:05;99236.16;;;1.02;98.27
39699;BME280;25372;50.582;12.250;2024-01-06T17:29:28;99250.63;;;1.08;98.08
39699;BME280;25372;50.582;12.250;2024-01-06T17:39:50;99263.88;;;0.98;97.63
39699;BME280;25372;50.582;12.250;2024-01-06T17:50:13;99275.25;;;0.67;97.82
39699;BME280;25372;50.582;12.250;2024-01-06T18:00:34;99271.25;;;0.57;99.06
39699;BME280;25372;50.582;12.250;2024-01-06T18:10:56;99287.03;;;0.48;99.24
39699;BME280;25372;50.582;12.250;2024-01-06T18:21:17;99296.28;;;0.55;98.77
39699;BME280;25372;50.582;12.250;2024-01-06T18:31:39;99306.06;;;0.45;98.55
39699;BME280;25372;50.582;12.250;2024-01-06T18:42:00;99321.66;;;0.42;99.68
39699;BME280;25372;50.582;12.250;2024-01-06T18:52:23;99330.72;;;0.27;99.14
39699;BME280;25372;50.582;12.250;2024-01-06T19:02:44;99340.84;;;0.03;99.87
39699;BME280;25372;50.582;12.250;2024-01-06T19:13:07;99353.50;;;-0.19;100.00
39699;BME280;25372;50.582;12.250;2024-01-06T19:23:29;99365.50;;;-0.18;100.00
39699;BME280;25372;50.582;12.250;2024-01-06T19:33:52;99363.22;;;-0.29;100.00
39699;BME280;25372;50.582;12.250;2024-01-06T19:44:13;99385.66;;;-0.31;100.00
39699;BME280;25372;50.582;12.250;2024-01-06T19:54:36;99392.06;;;-0.46;100.00
39699;BME280;25372;50.582;12.250;2024-01-06T20:04:58;99405.09;;;-0.52;100.00
39699;BME280;25372;50.582;12.250;2024-01-06T20:15:20;99414.78;;;-0.61;100.00
39699;BME280;25372;50.582;12.250;2024-01-06T20:25:42;99413.31;;;-0.71;100.00
39699;BME280;25372;50.582;12.250;2024-01-06T20:36:05;99412.44;;;-0.72;99.14
39699;BME280;25372;50.582;12.250;2024-01-06T20:46:27;99406.72;;;-0.85;99.29
39699;BME280;25372;50.582;12.250;2024-01-06T20:56:52;99415.41;;;-0.87;98.72
39699;BME280;25372;50.582;12.250;2024-01-06T21:07:13;99419.88;;;-0.95;99.04
39699;BME280;25372;50.582;12.250;2024-01-06T21:17:36;99420.09;;;-1.05;98.90
39699;BME280;25372;50.582;12.250;2024-01-06T21:27:56;99418.09;;;-0.93;98.75
39699;BME280;25372;50.582;12.250;2024-01-06T21:38:19;99429.00;;;-1.20;100.00
39699;BME280;25372;50.582;12.250;2024-01-06T21:48:40;99438.53;;;-1.23;98.90
39699;BME280;25372;50.582;12.250;2024-01-06T21:59:02;99447.31;;;-1.32;98.98
39699;BME280;25372;50.582;12.250;2024-01-06T22:09:23;99445.72;;;-1.39;98.60
39699;BME280;25372;50.582;12.250;2024-01-06T22:19:45;99463.91;;;-1.46;98.08
39699;BME280;25372;50.582;12.250;2024-01-06T22:30:07;99467.44;;;-1.51;98.58
39699;BME280;25372;50.582;12.250;2024-01-06T22:40:30;99475.97;;;-1.48;98.00
39699;BME280;25372;50.582;12.250;2024-01-06T22:50:51;99472.78;;;-1.62;98.02
39699;BME280;25372;50.582;12.250;2024-01-06T23:01:14;99483.97;;;-1.62;97.60
39699;BME280;25372;50.582;12.250;2024-01-06T23:11:34;99502.00;;;-1.62;98.77
39699;BME280;25372;50.582;12.250;2024-01-06T23:21:57;99498.69;;;-1.69;97.56
39699;BME280;25372;50.582;12.250;2024-01-06T23:32:18;99520.09;;;-1.66;96.53
39699;BME280;25372;50.582;12.250;2024-01-06T23:42:40;99524.59;;;-1.78;94.93
39699;BME280;25372;50.582;12.250;2024-01-06T23:53:02;99528.78;;;-1.72;93.61
